Kezdőlap
METAR-TAF:

METAR-TAF

Repülőterek :

Yellowknife, Északnyugati területek, Kanada

földrajzi szélesség: 62-28N, földrajzi hosszúság: 114-27W, magasság: 205 m

Jelenlegi meteorológiai megfigyelések

A jelentés 35 perccel ezelõtt készült, 07:00 UTC
Északi szél 6 kt
Hőmérséklet 13°C
Páratartalom 72%
Légköri nyomás 1028 hPa
Látótávolság: 24.1 km
Borult 25000 lábon

METAR: CYZF 230700Z 36006KT 15SM OVC250 13/08 A3037 RMK FU8 SLP292

Idő: 01:35 (07:35 UTC)

Előrejelzés

A jelentés 1 órával és 56 perccel ezelõtt készült, 05:39 UTC
Az előrejelzés 23-én 06 óra UTC és 24-én 06 óra UTC között érvényes
Északi szél 8 kt
Látótávolság: 10 km
Kevés felhő 6000 lábon
Szakadozott felhőzet 25000 lábon

TAF: CYZF 230539Z 2306/2406 01008KT P6SM FEW060 BKN250 RMK NXT FCST BY 231200Z

Meteorológiai megfigyelések és előrejelzések több, mint 4000 repülőtéren (METAR és TAF jelentéseket).

A térképen piros és sárga pontok jelzik az elérhető meteorológiai állomásokat.

Mozgassa az egeret a pont fölött, hogy megjelenjen az állomás neve.

Azután kattintson az időjárási megfigyelések és előrejelzések megtekintéséhez.

A térkép megváltoztatása: kattintson a fekete keresztel jelölt zöld gombra ráközelítéshez, a vonallal jelölt zöld gombra távolításhoz, vagy a zöld nyilakra a szomszédos térképek eléréséhez.


METAR-TAF: